sensor_id;sensor_type;location;lat;lon;timestamp;P1;durP1;ratioP1;P2;durP2;ratioP2
77563;SDS011;66703;48.076;9.220;2023-11-19T00:01:51;19.83;;;18.60;;
77563;SDS011;66703;48.076;9.220;2023-11-19T00:04:20;14.75;;;13.55;;
77563;SDS011;66703;48.076;9.220;2023-11-19T00:07:06;14.50;;;13.43;;
77563;SDS011;66703;48.076;9.220;2023-11-19T00:09:54;30.33;;;28.80;;
77563;SDS011;66703;48.076;9.220;2023-11-19T00:12:20;17.15;;;15.95;;
77563;SDS011;66703;48.076;9.220;2023-11-19T00:14:45;17.95;;;16.67;;
77563;SDS011;66703;48.076;9.220;2023-11-19T00:17:11;38.75;;;36.90;;
77563;SDS011;66703;48.076;9.220;2023-11-19T00:19:39;23.30;;;21.77;;
77563;SDS011;66703;48.076;9.220;2023-11-19T00:22:07;23.00;;;21.58;;
77563;SDS011;66703;48.076;9.220;2023-11-19T00:24:33;22.23;;;20.83;;
77563;SDS011;66703;48.076;9.220;2023-11-19T00:27:00;19.75;;;18.23;;
77563;SDS011;66703;48.076;9.220;2023-11-19T00:29:35;19.88;;;18.27;;
77563;SDS011;66703;48.076;9.220;2023-11-19T00:32:04;18.42;;;17.02;;
77563;SDS011;66703;48.076;9.220;2023-11-19T00:34:30;18.48;;;16.98;;
77563;SDS011;66703;48.076;9.220;2023-11-19T00:37:01;23.00;;;21.38;;
77563;SDS011;66703;48.076;9.220;2023-11-19T00:39:41;15.75;;;14.43;;
77563;SDS011;66703;48.076;9.220;2023-11-19T00:42:12;25.23;;;23.42;;
77563;SDS011;66703;48.076;9.220;2023-11-19T00:44:42;18.95;;;17.52;;
77563;SDS011;66703;48.076;9.220;2023-11-19T00:47:10;17.33;;;16.08;;
77563;SDS011;66703;48.076;9.220;2023-11-19T00:49:36;18.92;;;17.42;;
77563;SDS011;66703;48.076;9.220;2023-11-19T00:52:02;15.43;;;14.02;;
77563;SDS011;66703;48.076;9.220;2023-11-19T00:54:27;15.38;;;14.38;;
77563;SDS011;66703;48.076;9.220;2023-11-19T00:56:57;15.88;;;14.73;;
77563;SDS011;66703;48.076;9.220;2023-11-19T00:59:32;15.68;;;14.75;;
77563;SDS011;66703;48.076;9.220;2023-11-19T01:01:58;14.55;;;13.50;;
77563;SDS011;66703;48.076;9.220;2023-11-19T01:04:35;18.67;;;17.63;;
77563;SDS011;66703;48.076;9.220;2023-11-19T01:07:17;13.13;;;12.13;;
77563;SDS011;66703;48.076;9.220;2023-11-19T01:10:01;17.05;;;16.08;;
77563;SDS011;66703;48.076;9.220;2023-11-19T01:12:38;12.88;;;11.85;;
77563;SDS011;66703;48.076;9.220;2023-11-19T01:15:34;17.00;;;15.88;;
77563;SDS011;66703;48.076;9.220;2023-11-19T01:18:42;18.10;;;16.85;;
77563;SDS011;66703;48.076;9.220;2023-11-19T01:21:14;23.48;;;22.02;;
77563;SDS011;66703;48.076;9.220;2023-11-19T01:23:46;16.92;;;15.93;;
77563;SDS011;66703;48.076;9.220;2023-11-19T01:26:18;25.15;;;23.85;;
77563;SDS011;66703;48.076;9.220;2023-11-19T01:28:51;14.82;;;13.73;;
77563;SDS011;66703;48.076;9.220;2023-11-19T01:31:20;19.67;;;18.52;;
77563;SDS011;66703;48.076;9.220;2023-11-19T01:33:56;15.48;;;14.48;;
77563;SDS011;66703;48.076;9.220;2023-11-19T01:36:22;15.20;;;14.13;;
77563;SDS011;66703;48.076;9.220;2023-11-19T01:38:48;17.85;;;16.52;;
77563;SDS011;66703;48.076;9.220;2023-11-19T01:41:15;18.17;;;16.92;;
77563;SDS011;66703;48.076;9.220;2023-11-19T01:43:40;16.17;;;14.98;;
77563;SDS011;66703;48.076;9.220;2023-11-19T01:46:12;19.33;;;18.10;;
77563;SDS011;66703;48.076;9.220;2023-11-19T01:48:39;25.95;;;24.38;;
77563;SDS011;66703;48.076;9.220;2023-11-19T01:51:07;13.73;;;12.60;;
77563;SDS011;66703;48.076;9.220;2023-11-19T01:53:34;18.65;;;17.50;;
77563;SDS011;66703;48.076;9.220;2023-11-19T01:56:02;14.27;;;13.30;;
77563;SDS011;66703;48.076;9.220;2023-11-19T01:58:28;17.45;;;16.50;;
77563;SDS011;66703;48.076;9.220;2023-11-19T02:00:55;17.40;;;16.27;;
77563;SDS011;66703;48.076;9.220;2023-11-19T02:03:20;16.55;;;15.50;;
77563;SDS011;66703;48.076;9.220;2023-11-19T02:05:47;17.85;;;16.85;;
77563;SDS011;66703;48.076;9.220;2023-11-19T02:08:14;14.68;;;13.55;;
77563;SDS011;66703;48.076;9.220;2023-11-19T02:10:44;15.88;;;14.90;;
77563;SDS011;66703;48.076;9.220;2023-11-19T02:13:10;19.50;;;18.38;;
77563;SDS011;66703;48.076;9.220;2023-11-19T02:15:35;17.17;;;15.77;;
77563;SDS011;66703;48.076;9.220;2023-11-19T02:21:02;15.02;;;14.13;;
77563;SDS011;66703;48.076;9.220;2023-11-19T02:23:46;18.02;;;16.92;;
77563;SDS011;66703;48.076;9.220;2023-11-19T02:28:45;21.08;;;19.85;;
77563;SDS011;66703;48.076;9.220;2023-11-19T02:31:10;25.00;;;23.60;;
77563;SDS011;66703;48.076;9.220;2023-11-19T02:33:39;18.30;;;17.00;;
77563;SDS011;66703;48.076;9.220;2023-11-19T02:36:05;22.65;;;21.27;;
77563;SDS011;66703;48.076;9.220;2023-11-19T02:38:35;16.67;;;15.48;;
77563;SDS011;66703;48.076;9.220;2023-11-19T02:41:05;19.63;;;18.42;;
77563;SDS011;66703;48.076;9.220;2023-11-19T02:43:32;22.30;;;21.05;;
77563;SDS011;66703;48.076;9.220;2023-11-19T02:46:02;21.83;;;20.35;;
77563;SDS011;66703;48.076;9.220;2023-11-19T02:48:37;12.82;;;12.02;;
77563;SDS011;66703;48.076;9.220;2023-11-19T02:51:23;13.07;;;12.18;;
77563;SDS011;66703;48.076;9.220;2023-11-19T02:53:50;20.98;;;19.60;;
77563;SDS011;66703;48.076;9.220;2023-11-19T02:56:15;13.43;;;12.43;;
77563;SDS011;66703;48.076;9.220;2023-11-19T02:58:50;14.10;;;13.02;;
77563;SDS011;66703;48.076;9.220;2023-11-19T03:01:21;13.80;;;12.70;;
77563;SDS011;66703;48.076;9.220;2023-11-19T03:03:54;20.95;;;19.50;;
77563;SDS011;66703;48.076;9.220;2023-11-19T03:06:22;17.73;;;16.52;;
77563;SDS011;66703;48.076;9.220;2023-11-19T03:08:52;39.25;;;37.40;;
77563;SDS011;66703;48.076;9.220;2023-11-19T03:11:17;22.48;;;21.05;;
77563;SDS011;66703;48.076;9.220;2023-11-19T03:13:47;17.50;;;15.98;;
77563;SDS011;66703;48.076;9.220;2023-11-19T03:16:13;17.42;;;16.02;;
77563;SDS011;66703;48.076;9.220;2023-11-19T03:18:38;24.08;;;22.38;;
77563;SDS011;66703;48.076;9.220;2023-11-19T03:21:27;18.92;;;17.55;;
77563;SDS011;66703;48.076;9.220;2023-11-19T03:24:01;18.90;;;17.50;;
77563;SDS011;66703;48.076;9.220;2023-11-19T03:26:28;18.88;;;17.38;;
77563;SDS011;66703;48.076;9.220;2023-11-19T03:28:56;26.02;;;24.35;;
77563;SDS011;66703;48.076;9.220;2023-11-19T03:31:24;19.50;;;18.00;;
77563;SDS011;66703;48.076;9.220;2023-11-19T03:33:50;19.83;;;18.45;;
77563;SDS011;66703;48.076;9.220;2023-11-19T03:36:25;18.42;;;17.10;;
77563;SDS011;66703;48.076;9.220;2023-11-19T03:39:11;21.05;;;19.65;;
77563;SDS011;66703;48.076;9.220;2023-11-19T03:41:40;19.05;;;17.95;;
77563;SDS011;66703;48.076;9.220;2023-11-19T03:44:22;17.27;;;16.17;;
77563;SDS011;66703;48.076;9.220;2023-11-19T03:46:47;15.68;;;14.55;;
77563;SDS011;66703;48.076;9.220;2023-11-19T03:49:24;19.05;;;17.75;;
77563;SDS011;66703;48.076;9.220;2023-11-19T03:51:58;22.65;;;21.42;;
77563;SDS011;66703;48.076;9.220;2023-11-19T03:54:24;15.63;;;14.32;;
77563;SDS011;66703;48.076;9.220;2023-11-19T03:56:55;16.63;;;15.30;;
77563;SDS011;66703;48.076;9.220;2023-11-19T03:59:34;18.10;;;16.88;;
77563;SDS011;66703;48.076;9.220;2023-11-19T04:02:02;21.48;;;20.17;;
77563;SDS011;66703;48.076;9.220;2023-11-19T04:04:28;21.02;;;19.55;;
77563;SDS011;66703;48.076;9.220;2023-11-19T04:07:12;18.98;;;17.80;;
77563;SDS011;66703;48.076;9.220;2023-11-19T04:09:37;24.23;;;22.73;;
77563;SDS011;66703;48.076;9.220;2023-11-19T04:12:03;16.23;;;15.10;;
77563;SDS011;66703;48.076;9.220;2023-11-19T04:14:28;16.35;;;14.98;;
77563;SDS011;66703;48.076;9.220;2023-11-19T04:16:54;19.88;;;18.45;;
77563;SDS011;66703;48.076;9.220;2023-11-19T04:19:19;16.33;;;15.00;;
77563;SDS011;66703;48.076;9.220;2023-11-19T04:21:48;21.27;;;19.67;;
77563;SDS011;66703;48.076;9.220;2023-11-19T04:24:17;27.40;;;25.77;;
77563;SDS011;66703;48.076;9.220;2023-11-19T04:26:43;18.63;;;17.13;;
77563;SDS011;66703;48.076;9.220;2023-11-19T04:29:14;18.77;;;17.15;;
77563;SDS011;66703;48.076;9.220;2023-11-19T04:31:40;16.63;;;15.20;;
77563;SDS011;66703;48.076;9.220;2023-11-19T04:34:09;14.90;;;13.75;;
77563;SDS011;66703;48.076;9.220;2023-11-19T04:36:36;21.52;;;20.05;;
77563;SDS011;66703;48.076;9.220;2023-11-19T04:39:02;18.38;;;16.75;;
77563;SDS011;66703;48.076;9.220;2023-11-19T04:41:33;17.58;;;16.25;;
77563;SDS011;66703;48.076;9.220;2023-11-19T04:44:07;16.58;;;15.32;;
77563;SDS011;66703;48.076;9.220;2023-11-19T04:46:40;28.00;;;26.30;;
77563;SDS011;66703;48.076;9.220;2023-11-19T04:49:05;15.65;;;14.25;;
77563;SDS011;66703;48.076;9.220;2023-11-19T04:52:02;26.05;;;24.45;;
77563;SDS011;66703;48.076;9.220;2023-11-19T04:54:27;16.65;;;15.35;;
77563;SDS011;66703;48.076;9.220;2023-11-19T04:57:01;16.65;;;15.25;;
77563;SDS011;66703;48.076;9.220;2023-11-19T04:59:34;16.35;;;15.13;;
77563;SDS011;66703;48.076;9.220;2023-11-19T05:02:13;18.08;;;16.88;;
77563;SDS011;66703;48.076;9.220;2023-11-19T05:04:45;16.55;;;15.35;;
77563;SDS011;66703;48.076;9.220;2023-11-19T05:07:17;16.83;;;15.40;;
77563;SDS011;66703;48.076;9.220;2023-11-19T05:09:44;15.52;;;14.27;;
77563;SDS011;66703;48.076;9.220;2023-11-19T05:12:16;19.48;;;18.13;;
77563;SDS011;66703;48.076;9.220;2023-11-19T05:14:43;17.63;;;16.13;;
77563;SDS011;66703;48.076;9.220;2023-11-19T05:17:19;15.95;;;14.82;;
77563;SDS011;66703;48.076;9.220;2023-11-19T05:19:45;18.95;;;17.67;;
77563;SDS011;66703;48.076;9.220;2023-11-19T05:24:46;14.65;;;13.65;;
77563;SDS011;66703;48.076;9.220;2023-11-19T05:27:16;18.00;;;16.77;;
77563;SDS011;66703;48.076;9.220;2023-11-19T05:29:49;16.92;;;15.63;;
77563;SDS011;66703;48.076;9.220;2023-11-19T05:32:17;17.95;;;16.63;;
77563;SDS011;66703;48.076;9.220;2023-11-19T05:34:50;16.95;;;15.43;;
77563;SDS011;66703;48.076;9.220;2023-11-19T05:37:15;16.50;;;14.90;;
77563;SDS011;66703;48.076;9.220;2023-11-19T05:39:41;26.00;;;24.27;;
77563;SDS011;66703;48.076;9.220;2023-11-19T05:42:10;17.73;;;16.33;;
77563;SDS011;66703;48.076;9.220;2023-11-19T05:44:50;16.70;;;15.35;;
77563;SDS011;66703;48.076;9.220;2023-11-19T05:47:15;18.95;;;17.55;;
77563;SDS011;66703;48.076;9.220;2023-11-19T05:49:41;18.35;;;16.83;;
77563;SDS011;66703;48.076;9.220;2023-11-19T05:52:07;19.55;;;17.95;;
77563;SDS011;66703;48.076;9.220;2023-11-19T05:54:35;17.50;;;16.00;;
77563;SDS011;66703;48.076;9.220;2023-11-19T05:57:05;25.23;;;23.63;;
77563;SDS011;66703;48.076;9.220;2023-11-19T05:59:34;14.80;;;13.55;;
77563;SDS011;66703;48.076;9.220;2023-11-19T06:02:01;13.52;;;12.32;;
77563;SDS011;66703;48.076;9.220;2023-11-19T06:04:27;18.88;;;17.58;;
77563;SDS011;66703;48.076;9.220;2023-11-19T06:06:56;13.50;;;12.20;;
77563;SDS011;66703;48.076;9.220;2023-11-19T06:09:22;13.32;;;11.07;;
77563;SDS011;66703;48.076;9.220;2023-11-19T06:11:50;20.85;;;19.50;;
77563;SDS011;66703;48.076;9.220;2023-11-19T06:14:16;17.00;;;15.60;;
77563;SDS011;66703;48.076;9.220;2023-11-19T06:16:45;17.05;;;15.55;;
77563;SDS011;66703;48.076;9.220;2023-11-19T06:19:13;15.32;;;14.02;;
77563;SDS011;66703;48.076;9.220;2023-11-19T06:21:39;16.58;;;15.25;;
77563;SDS011;66703;48.076;9.220;2023-11-19T06:24:04;14.85;;;13.32;;
77563;SDS011;66703;48.076;9.220;2023-11-19T06:26:39;14.75;;;13.38;;
77563;SDS011;66703;48.076;9.220;2023-11-19T06:29:23;22.50;;;20.83;;
77563;SDS011;66703;48.076;9.220;2023-11-19T06:46:39;15.50;;;14.38;;
77563;SDS011;66703;48.076;9.220;2023-11-19T06:49:11;17.02;;;15.68;;
77563;SDS011;66703;48.076;9.220;2023-11-19T07:19:52;15.48;;;14.20;;
77563;SDS011;66703;48.076;9.220;2023-11-19T07:22:46;17.52;;;16.10;;
77563;SDS011;66703;48.076;9.220;2023-11-19T07:25:20;16.85;;;15.35;;
77563;SDS011;66703;48.076;9.220;2023-11-19T07:27:57;16.17;;;14.50;;
77563;SDS011;66703;48.076;9.220;2023-11-19T07:40:11;17.33;;;15.90;;
77563;SDS011;66703;48.076;9.220;2023-11-19T07:42:45;23.35;;;18.58;;
77563;SDS011;66703;48.076;9.220;2023-11-19T07:45:11;19.70;;;14.38;;
77563;SDS011;66703;48.076;9.220;2023-11-19T07:47:36;27.10;;;19.73;;
77563;SDS011;66703;48.076;9.220;2023-11-19T07:50:03;20.92;;;14.52;;
77563;SDS011;66703;48.076;9.220;2023-11-19T07:52:29;13.80;;;12.50;;
77563;SDS011;66703;48.076;9.220;2023-11-19T07:54:54;17.63;;;16.23;;
77563;SDS011;66703;48.076;9.220;2023-11-19T07:57:20;16.58;;;15.20;;
77563;SDS011;66703;48.076;9.220;2023-11-19T07:59:46;18.25;;;16.60;;
77563;SDS011;66703;48.076;9.220;2023-11-19T08:02:25;14.60;;;13.43;;
77563;SDS011;66703;48.076;9.220;2023-11-19T08:04:56;17.48;;;16.38;;
77563;SDS011;66703;48.076;9.220;2023-11-19T08:07:37;15.45;;;14.02;;
77563;SDS011;66703;48.076;9.220;2023-11-19T08:10:05;15.05;;;13.35;;
77563;SDS011;66703;48.076;9.220;2023-11-19T08:12:37;17.77;;;11.02;;
77563;SDS011;66703;48.076;9.220;2023-11-19T08:18:06;18.30;;;16.67;;
77563;SDS011;66703;48.076;9.220;2023-11-19T08:20:32;12.75;;;10.45;;
77563;SDS011;66703;48.076;9.220;2023-11-19T08:22:58;13.32;;;12.13;;
77563;SDS011;66703;48.076;9.220;2023-11-19T08:25:26;14.93;;;11.65;;
77563;SDS011;66703;48.076;9.220;2023-11-19T08:27:52;11.85;;;10.65;;
77563;SDS011;66703;48.076;9.220;2023-11-19T08:30:20;10.75;;;9.70;;
77563;SDS011;66703;48.076;9.220;2023-11-19T08:32:45;16.25;;;15.02;;
77563;SDS011;66703;48.076;9.220;2023-11-19T08:35:11;13.88;;;12.95;;
77563;SDS011;66703;48.076;9.220;2023-11-19T08:37:40;11.63;;;10.35;;
77563;SDS011;66703;48.076;9.220;2023-11-19T08:40:05;11.88;;;10.70;;
77563;SDS011;66703;48.076;9.220;2023-11-19T08:42:32;11.57;;;10.57;;
77563;SDS011;66703;48.076;9.220;2023-11-19T08:44:57;11.40;;;10.63;;
77563;SDS011;66703;48.076;9.220;2023-11-19T08:47:23;10.93;;;10.10;;
77563;SDS011;66703;48.076;9.220;2023-11-19T08:49:51;15.15;;;13.95;;
77563;SDS011;66703;48.076;9.220;2023-11-19T08:52:20;14.18;;;13.18;;
77563;SDS011;66703;48.076;9.220;2023-11-19T08:54:46;13.15;;;12.23;;
77563;SDS011;66703;48.076;9.220;2023-11-19T08:57:11;9.55;;;8.82;;
77563;SDS011;66703;48.076;9.220;2023-11-19T08:59:37;10.50;;;9.60;;
77563;SDS011;66703;48.076;9.220;2023-11-19T09:02:14;11.25;;;10.35;;
77563;SDS011;66703;48.076;9.220;2023-11-19T09:04:41;12.45;;;11.48;;
77563;SDS011;66703;48.076;9.220;2023-11-19T09:07:06;8.90;;;8.30;;
77563;SDS011;66703;48.076;9.220;2023-11-19T09:09:34;11.82;;;11.00;;
77563;SDS011;66703;48.076;9.220;2023-11-19T09:12:00;17.92;;;17.02;;
77563;SDS011;66703;48.076;9.220;2023-11-19T09:14:26;10.70;;;9.88;;
77563;SDS011;66703;48.076;9.220;2023-11-19T09:16:52;10.82;;;10.02;;
77563;SDS011;66703;48.076;9.220;2023-11-19T09:19:17;10.38;;;9.65;;
77563;SDS011;66703;48.076;9.220;2023-11-19T09:21:43;12.15;;;11.27;;
77563;SDS011;66703;48.076;9.220;2023-11-19T09:24:09;9.77;;;9.05;;
77563;SDS011;66703;48.076;9.220;2023-11-19T09:26:34;15.10;;;14.23;;
77563;SDS011;66703;48.076;9.220;2023-11-19T09:29:01;8.07;;;7.45;;
77563;SDS011;66703;48.076;9.220;2023-11-19T09:31:26;13.63;;;12.90;;
77563;SDS011;66703;48.076;9.220;2023-11-19T09:33:52;10.32;;;9.60;;
77563;SDS011;66703;48.076;9.220;2023-11-19T09:36:17;9.48;;;8.85;;
77563;SDS011;66703;48.076;9.220;2023-11-19T09:38:44;10.45;;;9.55;;
77563;SDS011;66703;48.076;9.220;2023-11-19T09:41:09;11.88;;;11.10;;
77563;SDS011;66703;48.076;9.220;2023-11-19T09:43:37;9.48;;;8.77;;
77563;SDS011;66703;48.076;9.220;2023-11-19T09:46:06;8.95;;;8.25;;
77563;SDS011;66703;48.076;9.220;2023-11-19T09:48:35;11.07;;;9.43;;
77563;SDS011;66703;48.076;9.220;2023-11-19T09:51:01;8.73;;;8.13;;
77563;SDS011;66703;48.076;9.220;2023-11-19T09:53:27;10.00;;;9.27;;
77563;SDS011;66703;48.076;9.220;2023-11-19T09:55:52;7.57;;;6.97;;
77563;SDS011;66703;48.076;9.220;2023-11-19T09:58:18;8.50;;;7.90;;
77563;SDS011;66703;48.076;9.220;2023-11-19T10:00:44;11.35;;;10.65;;
77563;SDS011;66703;48.076;9.220;2023-11-19T10:03:10;13.00;;;12.30;;
77563;SDS011;66703;48.076;9.220;2023-11-19T10:05:37;7.28;;;6.78;;
77563;SDS011;66703;48.076;9.220;2023-11-19T10:08:04;9.43;;;8.77;;
77563;SDS011;66703;48.076;9.220;2023-11-19T10:10:30;7.88;;;7.38;;
77563;SDS011;66703;48.076;9.220;2023-11-19T10:12:55;8.07;;;7.57;;
77563;SDS011;66703;48.076;9.220;2023-11-19T10:15:21;8.95;;;8.38;;
77563;SDS011;66703;48.076;9.220;2023-11-19T10:17:47;8.63;;;8.13;;
77563;SDS011;66703;48.076;9.220;2023-11-19T10:20:13;9.90;;;9.27;;
77563;SDS011;66703;48.076;9.220;2023-11-19T10:22:38;8.35;;;7.78;;
77563;SDS011;66703;48.076;9.220;2023-11-19T10:25:04;9.45;;;8.70;;
77563;SDS011;66703;48.076;9.220;2023-11-19T10:27:30;7.50;;;7.00;;
77563;SDS011;66703;48.076;9.220;2023-11-19T10:29:59;9.30;;;8.70;;
77563;SDS011;66703;48.076;9.220;2023-11-19T10:32:24;8.48;;;7.97;;
77563;SDS011;66703;48.076;9.220;2023-11-19T10:34:50;9.15;;;8.55;;
77563;SDS011;66703;48.076;9.220;2023-11-19T10:37:28;8.35;;;7.85;;
77563;SDS011;66703;48.076;9.220;2023-11-19T10:39:57;8.50;;;8.05;;
77563;SDS011;66703;48.076;9.220;2023-11-19T10:42:22;6.95;;;6.45;;
77563;SDS011;66703;48.076;9.220;2023-11-19T10:44:48;9.30;;;8.82;;
77563;SDS011;66703;48.076;9.220;2023-11-19T10:47:14;5.97;;;5.57;;
77563;SDS011;66703;48.076;9.220;2023-11-19T10:49:40;9.30;;;8.80;;
77563;SDS011;66703;48.076;9.220;2023-11-19T10:52:05;5.88;;;5.47;;
77563;SDS011;66703;48.076;9.220;2023-11-19T10:54:34;7.32;;;6.90;;
77563;SDS011;66703;48.076;9.220;2023-11-19T10:56:59;5.22;;;4.93;;
77563;SDS011;66703;48.076;9.220;2023-11-19T10:59:28;6.25;;;5.85;;
77563;SDS011;66703;48.076;9.220;2023-11-19T11:01:55;6.90;;;6.50;;
77563;SDS011;66703;48.076;9.220;2023-11-19T11:04:24;8.45;;;8.05;;
77563;SDS011;66703;48.076;9.220;2023-11-19T11:06:51;5.90;;;5.60;;
77563;SDS011;66703;48.076;9.220;2023-11-19T11:09:19;5.28;;;4.88;;
77563;SDS011;66703;48.076;9.220;2023-11-19T11:11:48;6.32;;;5.93;;
77563;SDS011;66703;48.076;9.220;2023-11-19T11:14:15;4.90;;;4.60;;
77563;SDS011;66703;48.076;9.220;2023-11-19T11:16:44;5.55;;;5.25;;
77563;SDS011;66703;48.076;9.220;2023-11-19T11:19:11;5.28;;;4.90;;
77563;SDS011;66703;48.076;9.220;2023-11-19T11:21:38;4.45;;;4.15;;
77563;SDS011;66703;48.076;9.220;2023-11-19T11:24:13;5.72;;;5.43;;
77563;SDS011;66703;48.076;9.220;2023-11-19T11:29:46;6.72;;;6.32;;
77563;SDS011;66703;48.076;9.220;2023-11-19T11:32:38;7.47;;;7.15;;
77563;SDS011;66703;48.076;9.220;2023-11-19T11:38:01;8.98;;;8.57;;
77563;SDS011;66703;48.076;9.220;2023-11-19T11:40:29;7.30;;;6.90;;
77563;SDS011;66703;48.076;9.220;2023-11-19T11:42:54;5.50;;;5.25;;
77563;SDS011;66703;48.076;9.220;2023-11-19T11:45:20;5.47;;;5.18;;
77563;SDS011;66703;48.076;9.220;2023-11-19T11:50:46;5.57;;;5.28;;
77563;SDS011;66703;48.076;9.220;2023-11-19T11:56:32;5.03;;;4.72;;
77563;SDS011;66703;48.076;9.220;2023-11-19T11:58:58;5.43;;;5.13;;
77563;SDS011;66703;48.076;9.220;2023-11-19T12:01:25;7.88;;;7.57;;
77563;SDS011;66703;48.076;9.220;2023-11-19T12:03:55;3.92;;;3.72;;
77563;SDS011;66703;48.076;9.220;2023-11-19T12:06:21;4.03;;;3.83;;
77563;SDS011;66703;48.076;9.220;2023-11-19T12:08:47;4.78;;;4.57;;
77563;SDS011;66703;48.076;9.220;2023-11-19T12:11:12;5.68;;;5.38;;
77563;SDS011;66703;48.076;9.220;2023-11-19T12:13:47;3.33;;;3.13;;
77563;SDS011;66703;48.076;9.220;2023-11-19T12:16:20;8.13;;;7.82;;
77563;SDS011;66703;48.076;9.220;2023-11-19T12:18:46;3.45;;;3.33;;
77563;SDS011;66703;48.076;9.220;2023-11-19T12:21:12;3.70;;;3.50;;
77563;SDS011;66703;48.076;9.220;2023-11-19T12:23:53;2.97;;;2.83;;
77563;SDS011;66703;48.076;9.220;2023-11-19T12:26:32;3.00;;;2.85;;
77563;SDS011;66703;48.076;9.220;2023-11-19T12:29:01;3.60;;;3.40;;
77563;SDS011;66703;48.076;9.220;2023-11-19T12:31:28;2.42;;;2.33;;
77563;SDS011;66703;48.076;9.220;2023-11-19T12:33:54;2.85;;;2.75;;
77563;SDS011;66703;48.076;9.220;2023-11-19T12:36:20;3.38;;;3.17;;
77563;SDS011;66703;48.076;9.220;2023-11-19T12:38:45;3.20;;;3.00;;
77563;SDS011;66703;48.076;9.220;2023-11-19T12:41:11;2.33;;;2.22;;
77563;SDS011;66703;48.076;9.220;2023-11-19T12:43:37;4.03;;;3.72;;
77563;SDS011;66703;48.076;9.220;2023-11-19T12:46:16;3.22;;;3.03;;
77563;SDS011;66703;48.076;9.220;2023-11-19T12:48:45;3.05;;;2.88;;
77563;SDS011;66703;48.076;9.220;2023-11-19T12:51:12;4.28;;;4.07;;
77563;SDS011;66703;48.076;9.220;2023-11-19T12:53:47;3.50;;;3.30;;
77563;SDS011;66703;48.076;9.220;2023-11-19T12:56:15;3.95;;;3.75;;
77563;SDS011;66703;48.076;9.220;2023-11-19T12:58:41;4.53;;;4.32;;
77563;SDS011;66703;48.076;9.220;2023-11-19T13:01:08;4.22;;;3.92;;
77563;SDS011;66703;48.076;9.220;2023-11-19T13:03:37;2.65;;;2.45;;
77563;SDS011;66703;48.076;9.220;2023-11-19T13:06:07;5.10;;;4.90;;
77563;SDS011;66703;48.076;9.220;2023-11-19T13:08:46;4.60;;;4.40;;
77563;SDS011;66703;48.076;9.220;2023-11-19T13:11:15;4.90;;;4.70;;
77563;SDS011;66703;48.076;9.220;2023-11-19T13:16:20;2.72;;;2.53;;
77563;SDS011;66703;48.076;9.220;2023-11-19T13:18:45;4.30;;;4.00;;
77563;SDS011;66703;48.076;9.220;2023-11-19T13:21:10;4.57;;;4.38;;
77563;SDS011;66703;48.076;9.220;2023-11-19T13:23:36;3.83;;;3.63;;
77563;SDS011;66703;48.076;9.220;2023-11-19T13:26:01;5.18;;;4.88;;
77563;SDS011;66703;48.076;9.220;2023-11-19T13:28:28;3.17;;;2.97;;
77563;SDS011;66703;48.076;9.220;2023-11-19T13:30:54;5.20;;;4.93;;
77563;SDS011;66703;48.076;9.220;2023-11-19T13:33:19;4.30;;;4.03;;
77563;SDS011;66703;48.076;9.220;2023-11-19T13:35:45;3.47;;;3.17;;
77563;SDS011;66703;48.076;9.220;2023-11-19T13:38:10;4.05;;;3.83;;
77563;SDS011;66703;48.076;9.220;2023-11-19T13:40:36;3.42;;;3.22;;
77563;SDS011;66703;48.076;9.220;2023-11-19T13:43:01;3.55;;;3.35;;
77563;SDS011;66703;48.076;9.220;2023-11-19T13:45:26;3.67;;;3.47;;
77563;SDS011;66703;48.076;9.220;2023-11-19T13:47:52;3.40;;;3.20;;
77563;SDS011;66703;48.076;9.220;2023-11-19T13:50:18;3.78;;;3.55;;
77563;SDS011;66703;48.076;9.220;2023-11-19T13:52:44;3.40;;;3.20;;
77563;SDS011;66703;48.076;9.220;2023-11-19T13:55:14;3.95;;;3.65;;
77563;SDS011;66703;48.076;9.220;2023-11-19T13:57:40;3.70;;;3.50;;
77563;SDS011;66703;48.076;9.220;2023-11-19T14:00:08;4.35;;;4.05;;
77563;SDS011;66703;48.076;9.220;2023-11-19T14:02:38;6.88;;;6.57;;
77563;SDS011;66703;48.076;9.220;2023-11-19T14:05:05;4.22;;;4.03;;
77563;SDS011;66703;48.076;9.220;2023-11-19T14:07:30;4.32;;;4.10;;
77563;SDS011;66703;48.076;9.220;2023-11-19T14:09:56;3.53;;;3.33;;
77563;SDS011;66703;48.076;9.220;2023-11-19T14:12:21;4.03;;;3.72;;
77563;SDS011;66703;48.076;9.220;2023-11-19T14:14:47;3.45;;;3.25;;
77563;SDS011;66703;48.076;9.220;2023-11-19T14:17:12;3.58;;;3.38;;
77563;SDS011;66703;48.076;9.220;2023-11-19T14:19:41;4.63;;;4.32;;
77563;SDS011;66703;48.076;9.220;2023-11-19T14:22:07;3.47;;;3.15;;
77563;SDS011;66703;48.076;9.220;2023-11-19T14:24:33;4.05;;;3.85;;
77563;SDS011;66703;48.076;9.220;2023-11-19T14:26:59;3.08;;;2.90;;
77563;SDS011;66703;48.076;9.220;2023-11-19T14:29:25;4.22;;;4.03;;
77563;SDS011;66703;48.076;9.220;2023-11-19T14:31:52;3.17;;;2.97;;
77563;SDS011;66703;48.076;9.220;2023-11-19T14:34:19;3.50;;;3.30;;
77563;SDS011;66703;48.076;9.220;2023-11-19T14:36:45;3.58;;;3.42;;
77563;SDS011;66703;48.076;9.220;2023-11-19T14:39:10;4.78;;;3.80;;
77563;SDS011;66703;48.076;9.220;2023-11-19T14:41:36;4.20;;;4.00;;
77563;SDS011;66703;48.076;9.220;2023-11-19T14:44:01;4.05;;;3.85;;
77563;SDS011;66703;48.076;9.220;2023-11-19T14:46:28;3.33;;;3.13;;
77563;SDS011;66703;48.076;9.220;2023-11-19T14:48:54;3.38;;;3.17;;
77563;SDS011;66703;48.076;9.220;2023-11-19T14:51:20;3.85;;;3.65;;
77563;SDS011;66703;48.076;9.220;2023-11-19T14:53:47;5.78;;;5.57;;
77563;SDS011;66703;48.076;9.220;2023-11-19T14:56:14;4.60;;;4.40;;
77563;SDS011;66703;48.076;9.220;2023-11-19T14:58:40;4.00;;;3.80;;
77563;SDS011;66703;48.076;9.220;2023-11-19T15:01:05;3.70;;;3.50;;
77563;SDS011;66703;48.076;9.220;2023-11-19T15:03:32;3.08;;;2.88;;
77563;SDS011;66703;48.076;9.220;2023-11-19T15:05:58;3.90;;;3.70;;
77563;SDS011;66703;48.076;9.220;2023-11-19T15:08:23;4.28;;;4.05;;
77563;SDS011;66703;48.076;9.220;2023-11-19T15:11:08;3.42;;;3.20;;
77563;SDS011;66703;48.076;9.220;2023-11-19T15:13:34;3.88;;;3.65;;
77563;SDS011;66703;48.076;9.220;2023-11-19T15:16:02;3.22;;;3.00;;
77563;SDS011;66703;48.076;9.220;2023-11-19T15:18:30;4.00;;;3.80;;
77563;SDS011;66703;48.076;9.220;2023-11-19T15:20:56;5.03;;;4.82;;
77563;SDS011;66703;48.076;9.220;2023-11-19T15:23:22;4.50;;;4.30;;
77563;SDS011;66703;48.076;9.220;2023-11-19T15:25:47;3.83;;;3.63;;
77563;SDS011;66703;48.076;9.220;2023-11-19T15:28:14;4.22;;;4.03;;
77563;SDS011;66703;48.076;9.220;2023-11-19T15:30:40;3.17;;;2.97;;
77563;SDS011;66703;48.076;9.220;2023-11-19T15:33:05;4.22;;;3.92;;
77563;SDS011;66703;48.076;9.220;2023-11-19T15:35:30;3.03;;;2.83;;
77563;SDS011;66703;48.076;9.220;2023-11-19T15:37:56;3.53;;;3.33;;
77563;SDS011;66703;48.076;9.220;2023-11-19T15:40:21;3.67;;;3.47;;
77563;SDS011;66703;48.076;9.220;2023-11-19T15:42:47;4.13;;;3.92;;
77563;SDS011;66703;48.076;9.220;2023-11-19T15:45:12;3.72;;;3.50;;
77563;SDS011;66703;48.076;9.220;2023-11-19T15:47:41;5.63;;;5.32;;
77563;SDS011;66703;48.076;9.220;2023-11-19T15:50:09;5.25;;;5.03;;
77563;SDS011;66703;48.076;9.220;2023-11-19T15:52:35;4.43;;;4.18;;
77563;SDS011;66703;48.076;9.220;2023-11-19T15:55:01;4.00;;;3.67;;
77563;SDS011;66703;48.076;9.220;2023-11-19T15:57:27;7.68;;;7.32;;
77563;SDS011;66703;48.076;9.220;2023-11-19T15:59:53;4.93;;;4.72;;
77563;SDS011;66703;48.076;9.220;2023-11-19T16:02:18;4.85;;;4.65;;